Accueil
METAR-TAF:

METAR-TAF

Aéroports :

Sikeston, Missouri, États-Unis

latitude: 36-53-56N, longitude: 089-33-42W, altitude: 96 m

Observation

Le bulletin a été fait il y a 24 minutes, à 01:35 UTC
Vent 15 kt de nord avec des rafales jusqu'à 24 kt
Température -2°C
Humidité 93%
Pression 1028 hPa
Visibilité: 8.0 km
Nuages fragmentés à une hauteur de 700 ft
Ciel couvert à une hauteur de 1400 ft
brume

METAR: KSIK 120135Z AUTO 35015G24KT 5SM BR BKN007 OVC014 M02/M03 A3037 RMK AO2

Heure: 19:59 (01:59 UTC)


TAF: absent

Observations et prévisions météorologiques de plus de 4000 aéroports (messages METAR et TAF).

Les stations disponibles sont représentées par des disques jaunes et rouges sur la carte.

Passer la souris dessus pour voir le nom de la station.

Cliquer dessus pour voir les observations et prévisions météorologiques.

Pour changer de carte: cliquez sur les boutons verts avec une croix noire pour zoomer, sur le bouton vert avec un tiret pour effectuer un zoom arrière, ou sur les flèches vertes pour les cartes adjacentes.


METAR-TAF: